Flight Track Log - Related Links

Times and Time Zones

All times are in EDT time to prevent confusion due to time zone crossing. See the SWA655 flight status page for this flight to view local times or setup timezone preferences in your user account.

Time Position Orientation Groundspeed Altitude Reporting Facility
EDT Latitude Longitude Course Direction KTS km/h meters Rate Location/Type
Wed 17:19:48 37.6333 -122.3667 138° Southeast 162 299 396  Level Northern Cal TRACON
Wed 17:20:48 37.6833 -122.3833 345° North 221 409 1,128 564 Climbing Northern Cal TRACON
Wed 17:21:48 37.6667 -122.4333 247° West 287 531 1,524 464 Climbing Northern Cal TRACON
Wed 17:23:06 37.5742 -122.4008 164° South 297 550 2,195 842 Climbing Oakland Center
Wed 17:24:57 37.4075 -122.3064 156° South 337 624 4,176 994 Climbing Los Angeles Center
Wed 17:25:00 37.2577 -121.9618 138° Southeast  Level Estimated
Wed 17:25:59 37.3158 -122.2511 154° Southeast 351 650 5,060  Level Los Angeles Center
Wed 17:27:01 37.2344 -122.1625 139° Southeast 386 715 5,761 729 Climbing Los Angeles Center
Wed 17:28:12 37.1539 -122.0317 128° Southeast 401 742 6,675 707 Climbing Oakland Center
Wed 17:29:13 37.0758 -121.9239 132° Southeast 417 772 7,315 645 Climbing Oakland Center
Wed 17:30:14 36.9969 -121.8117 131° Southeast 429 795 7,986 614 Climbing Oakland Center
Wed 17:31:15 36.9150 -121.7031 133° Southeast 431 798 8,565 510 Climbing Oakland Center
Wed 17:32:16 36.8331 -121.5872 131° Southeast 443 821 9,022 450 Climbing Oakland Center
Wed 17:33:17 36.7456 -121.4653 132° Southeast 454 840 9,479 491 Climbing Oakland Center
Wed 17:34:19 36.6619 -121.3475 131° Southeast 454 840 10,028 401 Climbing Oakland Center
Wed 17:35:20 36.5761 -121.2292 132° Southeast 459 850 10,302 390 Climbing Oakland Center
Wed 17:36:21 36.4719 -121.0864 132° Southeast 464 859 10,820 405 Climbing Oakland Center
Wed 17:37:22 36.3867 -120.9686 132° Southeast 462 856 11,125 225 Climbing Oakland Center
Wed 17:38:23 36.2981 -120.8494 133° Southeast 467 864 11,278 75 Climbing Oakland Center
Wed 17:39:24 36.2092 -120.7308 133° Southeast 470 871 11,278  Level Oakland Center
Wed 17:40:26 36.1206 -120.6081 132° Southeast 475 880 11,278  Level Oakland Center
Wed 17:41:27 36.0306 -120.4900 133° Southeast 474 877 11,278  Level Oakland Center
Wed 17:42:28 35.9425 -120.3717 133° Southeast 469 869 11,278  Level Oakland Center
Wed 17:43:29 35.8550 -120.2539 132° Southeast 465 861 11,278  Level Oakland Center
Wed 17:44:30 35.7669 -120.1378 133° Southeast 461 855 11,278  Level Oakland Center
Wed 17:45:32 35.6769 -120.0194 133° Southeast 468 867 11,278  Level Oakland Center
Wed 17:46:33 35.5764 -119.9167 140° Southeast 473 875 11,278  Level Oakland Center
Wed 17:47:34 35.4697 -119.8258 145° Southeast 464 859 11,278  Level Oakland Center
Wed 17:48:35 35.3636 -119.7331 145° Southeast 465 861 11,278  Level Oakland Center
Wed 17:49:36 35.2581 -119.6436 145° Southeast 462 856 11,278 -178 Level Oakland Center
Wed 17:50:38 35.1306 -119.5336 145° Southeast 465 861 10,912 -416 Descending Oakland Center
Wed 17:51:39 35.0264 -119.4467 146° Southeast 455 843 10,424 -689 Descending Oakland Center
Wed 17:52:40 34.9272 -119.3594 144° Southeast 440 814 9,510 -914 Descending Oakland Center
Wed 17:53:41 34.8250 -119.2744 146° Southeast 442 819 8,565 -914 Descending Oakland Center
Wed 17:53:56 34.8044 -119.2572 145° Southeast 446 826 8,352 -926 Descending Los Angeles Center
Wed 17:54:58 34.7019 -119.1697 145° Southeast 449 832 7,376 -929 Descending Los Angeles Center
Wed 17:56:00 34.5978 -119.0831 146° Southeast 462 856 6,431 -959 Descending Los Angeles Center
Wed 17:57:02 34.4769 -118.9828 146° Southeast 442 819 5,395 -855 Descending Los Angeles Center
Wed 17:58:04 34.3811 -118.9019 145° Southeast 418 774 4,663 -531 Descending Los Angeles Center
Wed 17:59:06 34.2822 -118.8539 158° South 382 708 4,298 -443 Descending Los Angeles Center
Wed 18:00:08 34.1872 -118.8189 163° South 360 666 3,749 -531 Descending Los Angeles Center
Wed 18:01:10 34.0808 -118.7794 163° South 360 666 3,200 -339 Descending Los Angeles Center
Wed 18:02:12 34.0322 -118.6933 124° Southeast 293 542 3,048 -236 Descending Los Angeles Center
Wed 18:03:14 34.0236 -118.6000 96° East 278 515 2,713 -443 Descending Los Angeles Center
Wed 18:04:16 34.0147 -118.5022 96° East 272 504 2,134 -280 Descending Los Angeles Center
Wed 18:05:18 34.0164 -118.4186 89° East 265 491 2,134 -192 Level Los Angeles Center
Wed 18:06:20 34.0272 -118.3306 82° East 263 488 1,737 -310 Descending Los Angeles Center
Wed 18:07:22 34.0375 -118.2478 81° East 254 470 1,494 -236 Descending Los Angeles Center
Wed 18:08:24 34.0411 -118.1811 86° East 210 389 1,250 -242 Descending Los Angeles Center
Wed 18:09:38 34.0019 -118.1953 197° South 188 348 945 -229 Descending Los Angeles Center
Wed 18:10:40 33.9664 -118.2611 237° Southwest 174 322 732 -221 Descending Los Angeles Center
Wed 18:11:42 33.9617 -118.3097 263° West 156 290 488 -206 Descending Los Angeles Center
Wed 18:12:44 33.9578 -118.3506 263° West 139 257 305 -177 Descending Los Angeles Center
Wed 18:13:46 33.9544 -118.3897 264° West 126 233 122 -177 Descending Los Angeles Center
Wed 18:15:00 33.9333 -118.4000 250° West  Level FlightAware Approximate
Wed 18:22:00 33.9425 -118.4081 250° West  Level Estimated
Wed 18:23:00 33.9425 -118.4081 250° West  Level Estimated

Login

Don't have an account? Register now (free) for customized features, flight alerts, and more!